createdAt,value
2016-12-14T00:00:42.936Z,21.63
2016-12-14T00:01:52.890Z,21.58
2016-12-14T00:03:02.858Z,21.62
2016-12-14T00:04:13.140Z,21.6
2016-12-14T00:05:22.802Z,21.59
2016-12-14T00:06:33.080Z,21.59
2016-12-14T00:07:43.076Z,21.6
2016-12-14T00:08:53.349Z,21.65
2016-12-14T00:10:02.986Z,21.59
2016-12-14T00:11:12.939Z,21.66
2016-12-14T00:12:23.214Z,21.54
2016-12-14T00:13:33.467Z,21.68
2016-12-14T00:14:43.726Z,21.65
2016-12-14T00:15:53.992Z,21.59
2016-12-14T00:17:03.657Z,21.54
2016-12-14T00:18:13.627Z,21.62
2016-12-14T00:19:23.912Z,21.62
2016-12-14T00:20:34.165Z,21.6
2016-12-14T00:21:44.129Z,21.58
2016-12-14T00:22:54.084Z,21.56
2016-12-14T00:24:04.335Z,21.59
2016-12-14T00:25:14.024Z,21.6
2016-12-14T00:26:23.669Z,21.59
2016-12-14T00:27:33.618Z,21.6
2016-12-14T00:28:43.272Z,21.56
2016-12-14T00:29:53.541Z,21.65
2016-12-14T00:31:03.490Z,21.6
2016-12-14T00:32:13.762Z,21.59
2016-12-14T00:33:24.034Z,21.63
2016-12-14T00:34:33.685Z,21.56
2016-12-14T00:35:43.651Z,21.58
2016-12-14T00:36:53.640Z,21.54
2016-12-14T00:38:03.621Z,21.63
2016-12-14T00:39:13.249Z,21.6
2016-12-14T00:40:22.898Z,21.63
2016-12-14T00:41:32.879Z,21.58
2016-12-14T00:42:42.837Z,21.63
2016-12-14T00:43:52.798Z,21.66
2016-12-14T00:45:02.763Z,21.58
2016-12-14T00:46:12.411Z,21.66
2016-12-14T00:47:22.667Z,21.62
2016-12-14T00:48:32.936Z,21.63
2016-12-14T00:49:42.891Z,21.6
2016-12-14T00:50:53.154Z,21.58
2016-12-14T00:52:03.432Z,21.6
2016-12-14T00:53:13.420Z,21.59
2016-12-14T00:54:23.689Z,21.6
2016-12-14T00:55:33.352Z,21.54
2016-12-14T00:56:43.601Z,21.56
2016-12-14T00:57:53.570Z,21.53
2016-12-14T00:59:03.519Z,21.63
2016-12-14T01:00:13.826Z,21.58
2016-12-14T01:01:23.467Z,21.68
2016-12-14T01:02:33.727Z,21.53
2016-12-14T01:03:43.375Z,21.54
2016-12-14T01:04:53.333Z,21.58
2016-12-14T01:06:03.598Z,21.65
2016-12-14T01:07:13.545Z,21.58
2016-12-14T01:08:23.855Z,21.68
2016-12-14T01:09:34.117Z,21.6
2016-12-14T01:10:44.373Z,21.54
2016-12-14T01:11:54.636Z,21.63
2016-12-14T01:13:04.290Z,21.59
2016-12-14T01:14:14.558Z,21.68
2016-12-14T01:15:24.197Z,21.62
2016-12-14T01:16:34.465Z,21.65
2016-12-14T01:17:43.804Z,21.6
2016-12-14T01:18:53.487Z,21.56
2016-12-14T01:20:03.452Z,21.53
2016-12-14T01:21:13.410Z,21.54
2016-12-14T01:22:23.046Z,21.6
2016-12-14T01:23:33.308Z,21.59
2016-12-14T01:24:43.582Z,21.58
2016-12-14T01:25:53.847Z,21.58
2016-12-14T01:27:03.809Z,21.59
2016-12-14T01:28:13.767Z,21.58
2016-12-14T01:29:24.033Z,21.6
2016-12-14T01:30:34.292Z,21.6
2016-12-14T01:31:44.251Z,21.62
2016-12-14T01:32:54.203Z,21.65
2016-12-14T01:34:04.472Z,21.58
2016-12-14T01:35:14.737Z,21.65
2016-12-14T01:36:24.683Z,21.58
2016-12-14T01:37:34.651Z,21.58
2016-12-14T01:38:44.929Z,21.58
2016-12-14T01:39:54.583Z,21.48
2016-12-14T01:41:04.250Z,21.6
2016-12-14T01:42:13.901Z,21.56
2016-12-14T01:43:24.170Z,21.6
2016-12-14T01:44:34.126Z,21.62
2016-12-14T01:45:44.423Z,21.6
2016-12-14T01:46:54.071Z,21.56
2016-12-14T01:48:04.026Z,21.6
2016-12-14T01:49:14.343Z,21.58
2016-12-14T01:50:23.994Z,21.59
2016-12-14T01:51:33.947Z,21.58
2016-12-14T01:52:43.590Z,21.6
2016-12-14T01:53:53.853Z,21.63
2016-12-14T01:55:04.119Z,21.6
2016-12-14T01:56:13.773Z,21.6
2016-12-14T01:57:23.726Z,21.62
2016-12-14T01:58:33.975Z,21.59
2016-12-14T01:59:44.263Z,21.6
2016-12-14T02:00:54.237Z,21.53
2016-12-14T02:02:04.199Z,21.56
2016-12-14T02:03:14.150Z,21.53
2016-12-14T02:04:23.788Z,21.62
2016-12-14T02:05:34.090Z,21.62
2016-12-14T02:06:44.052Z,21.56
2016-12-14T02:07:54.007Z,21.58
2016-12-14T02:09:03.645Z,21.56
2016-12-14T02:10:13.636Z,21.62
2016-12-14T02:11:23.607Z,21.62
2016-12-14T02:12:33.885Z,21.59
2016-12-14T02:13:43.834Z,21.59
2016-12-14T02:14:54.100Z,21.54
2016-12-14T02:16:04.367Z,21.63
2016-12-14T02:17:14.317Z,21.51
2016-12-14T02:18:24.589Z,21.56
2016-12-14T02:19:34.854Z,21.58
2016-12-14T02:20:44.819Z,21.6
2016-12-14T02:21:55.085Z,21.65
2016-12-14T02:23:05.053Z,21.53
2016-12-14T02:24:14.698Z,21.51
2016-12-14T02:25:24.656Z,21.63
2016-12-14T02:26:34.918Z,21.56
2016-12-14T02:27:45.187Z,21.62
2016-12-14T02:28:55.456Z,21.53
2016-12-14T02:30:05.725Z,21.56
2016-12-14T02:31:15.987Z,21.59
2016-12-14T02:32:26.246Z,21.53
2016-12-14T02:33:35.897Z,21.56
2016-12-14T02:34:45.833Z,21.56
2016-12-14T02:35:55.862Z,21.47
2016-12-14T02:37:05.822Z,21.58
2016-12-14T02:38:15.772Z,21.54
2016-12-14T02:39:26.035Z,21.53
2016-12-14T02:40:35.988Z,21.5
2016-12-14T02:41:46.252Z,21.54
2016-12-14T02:42:56.217Z,21.58
2016-12-14T02:44:06.166Z,21.54
2016-12-14T02:45:16.131Z,21.54
2016-12-14T02:46:26.400Z,21.63
2016-12-14T02:47:36.349Z,21.54
2016-12-14T02:48:46.304Z,21.51
2016-12-14T02:49:56.569Z,21.53
2016-12-14T02:51:05.948Z,21.51
2016-12-14T02:52:16.211Z,21.59
2016-12-14T02:53:26.480Z,21.51
2016-12-14T02:54:36.472Z,21.48
2016-12-14T02:55:46.173Z,21.54
2016-12-14T02:56:56.448Z,21.51
2016-12-14T02:58:06.723Z,21.51
2016-12-14T02:59:16.991Z,21.62
2016-12-14T03:00:27.238Z,21.54
2016-12-14T03:01:37.199Z,21.56
2016-12-14T03:02:47.452Z,21.47
2016-12-14T03:03:57.712Z,21.51
2016-12-14T03:05:07.974Z,21.5
2016-12-14T03:06:18.236Z,21.59
2016-12-14T03:07:28.182Z,21.5
2016-12-14T03:08:38.468Z,21.54
2016-12-14T03:09:48.422Z,21.56
2016-12-14T03:10:57.760Z,21.48
2016-12-14T03:12:08.028Z,21.5
2016-12-14T03:13:17.369Z,21.54
2016-12-14T03:14:27.625Z,21.51
2016-12-14T03:15:37.890Z,21.5
2016-12-14T03:16:47.846Z,21.56
2016-12-14T03:17:57.811Z,21.5
2016-12-14T03:19:08.099Z,21.59
2016-12-14T03:20:17.449Z,21.56
2016-12-14T03:21:27.113Z,21.54
2016-12-14T03:22:37.086Z,21.54
2016-12-14T03:23:46.735Z,21.54
2016-12-14T03:24:57.004Z,21.58
2016-12-14T03:26:07.273Z,21.48
2016-12-14T03:27:17.535Z,21.54
2016-12-14T03:28:27.480Z,21.58
2016-12-14T03:29:37.742Z,21.6
2016-12-14T03:30:47.688Z,21.51
2016-12-14T03:31:57.029Z,21.5
2016-12-14T03:33:07.295Z,21.56
2016-12-14T03:34:17.608Z,21.6
2016-12-14T03:35:27.563Z,21.56
2016-12-14T03:36:37.883Z,21.53
2016-12-14T03:37:48.146Z,21.56
2016-12-14T03:38:58.327Z,21.54
2016-12-14T03:40:08.583Z,21.45
2016-12-14T03:41:18.549Z,21.58
2016-12-14T03:42:28.501Z,21.53
2016-12-14T03:43:38.773Z,21.56
2016-12-14T03:44:48.418Z,21.54
2016-12-14T03:45:58.363Z,21.58
2016-12-14T03:47:08.635Z,21.54
2016-12-14T03:48:18.609Z,21.54
2016-12-14T03:49:28.254Z,21.51
2016-12-14T03:50:38.219Z,21.48
2016-12-14T03:51:48.469Z,21.54
2016-12-14T03:52:58.152Z,21.59
2016-12-14T03:54:08.412Z,21.56
2016-12-14T03:55:18.366Z,21.54
2016-12-14T03:56:28.635Z,21.48
2016-12-14T03:57:38.276Z,21.45
2016-12-14T03:58:48.223Z,21.56
2016-12-14T03:59:58.504Z,21.56
2016-12-14T04:01:08.168Z,21.54
2016-12-14T04:02:18.436Z,21.51
2016-12-14T04:03:28.725Z,21.41
2016-12-14T04:04:39.000Z,21.58
2016-12-14T04:05:48.658Z,21.54
2016-12-14T04:06:58.924Z,21.45
2016-12-14T04:08:09.201Z,21.53
2016-12-14T04:09:19.451Z,21.47
2016-12-14T04:10:29.410Z,21.56
2016-12-14T04:11:39.365Z,21.47
2016-12-14T04:12:49.630Z,21.59
2016-12-14T04:13:59.880Z,21.53
2016-12-14T04:15:10.136Z,21.56
2016-12-14T04:16:20.085Z,21.44
2016-12-14T04:17:30.350Z,21.45
2016-12-14T04:18:40.302Z,21.51
2016-12-14T04:19:49.641Z,21.47
2016-12-14T04:20:59.596Z,21.48
2016-12-14T04:22:09.864Z,21.59
2016-12-14T04:23:19.192Z,21.48
2016-12-14T04:24:29.147Z,21.58
2016-12-14T04:25:39.410Z,21.53
2016-12-14T04:26:49.358Z,21.53
2016-12-14T04:27:59.618Z,21.45
2016-12-14T04:29:09.304Z,21.45
2016-12-14T04:30:19.573Z,21.5
2016-12-14T04:31:29.516Z,21.45
2016-12-14T04:32:39.462Z,21.53
2016-12-14T04:33:49.413Z,21.54
2016-12-14T04:34:59.705Z,21.51
2016-12-14T04:36:09.663Z,21.54
2016-12-14T04:37:19.932Z,21.56
2016-12-14T04:38:30.195Z,21.48
2016-12-14T04:39:40.466Z,21.56
2016-12-14T04:40:50.412Z,21.48
2016-12-14T04:42:00.060Z,21.47
2016-12-14T04:43:10.332Z,21.54
2016-12-14T04:44:20.613Z,21.51
2016-12-14T04:45:30.566Z,21.51
2016-12-14T04:46:40.520Z,21.45
2016-12-14T04:47:50.159Z,21.44
2016-12-14T04:49:00.105Z,21.5
2016-12-14T04:50:10.412Z,21.4
2016-12-14T04:51:20.678Z,21.5
2016-12-14T04:52:30.643Z,21.47
2016-12-14T04:53:40.926Z,21.48
2016-12-14T04:54:50.870Z,21.47
2016-12-14T04:56:01.190Z,21.41
2016-12-14T04:57:11.148Z,21.45
2016-12-14T04:58:21.091Z,21.48
2016-12-14T04:59:31.343Z,21.43
2016-12-14T05:00:40.987Z,21.48
2016-12-14T05:01:51.296Z,21.45
2016-12-14T05:03:01.257Z,21.43
2016-12-14T05:04:11.516Z,21.44
2016-12-14T05:05:21.477Z,21.48
2016-12-14T05:06:31.734Z,21.44
2016-12-14T05:07:41.475Z,21.41
2016-12-14T05:08:50.806Z,21.48
2016-12-14T05:10:00.764Z,21.43
2016-12-14T05:11:10.723Z,21.45
2016-12-14T05:12:20.694Z,21.53
2016-12-14T05:13:31.056Z,21.48
2016-12-14T05:14:41.322Z,21.45
2016-12-14T05:15:51.292Z,21.45
2016-12-14T05:17:01.248Z,21.5
2016-12-14T05:18:11.235Z,21.48
2016-12-14T05:19:21.553Z,21.48
2016-12-14T05:20:31.516Z,21.53
2016-12-14T05:21:41.475Z,21.47
2016-12-14T05:22:51.424Z,21.5
2016-12-14T05:24:01.719Z,21.54
2016-12-14T05:25:11.984Z,21.5
2016-12-14T05:26:22.249Z,21.51
2016-12-14T05:27:31.591Z,21.53
2016-12-14T05:28:41.238Z,21.45
2016-12-14T05:29:51.194Z,21.53
2016-12-14T05:31:01.161Z,21.45
2016-12-14T05:32:10.807Z,21.51
2016-12-14T05:33:21.110Z,21.56
2016-12-14T05:34:30.762Z,21.54
2016-12-14T05:35:40.416Z,21.45
2016-12-14T05:36:50.394Z,21.43
2016-12-14T05:38:00.653Z,21.45
2016-12-14T05:39:10.921Z,21.44
2016-12-14T05:40:20.879Z,21.51
2016-12-14T05:41:30.838Z,21.56
2016-12-14T05:42:41.097Z,21.43
2016-12-14T05:43:51.088Z,21.51
2016-12-14T05:45:01.354Z,21.47
2016-12-14T05:46:11.638Z,21.54
2016-12-14T05:47:21.590Z,21.44
2016-12-14T05:48:31.859Z,21.5
2016-12-14T05:49:41.824Z,21.43
2016-12-14T05:50:51.779Z,21.43
2016-12-14T05:52:02.048Z,21.45
2016-12-14T05:53:11.706Z,21.48
2016-12-14T05:54:21.347Z,21.44
2016-12-14T05:55:31.564Z,21.45
2016-12-14T05:56:41.541Z,21.43
2016-12-14T05:57:51.814Z,21.45
2016-12-14T05:59:01.509Z,21.5
2016-12-14T06:00:11.478Z,21.51
2016-12-14T06:01:21.747Z,21.48
2016-12-14T06:02:31.997Z,21.43
2016-12-14T06:03:42.253Z,21.44
2016-12-14T06:04:52.512Z,21.5
2016-12-14T06:06:01.856Z,21.44
2016-12-14T06:07:11.824Z,21.48
2016-12-14T06:08:21.498Z,21.48
2016-12-14T06:09:31.788Z,21.44
2016-12-14T06:10:42.070Z,21.48
2016-12-14T06:11:52.361Z,21.43
2016-12-14T06:13:02.076Z,21.45
2016-12-14T06:14:11.786Z,21.51
2016-12-14T06:15:21.744Z,21.44
2016-12-14T06:16:31.706Z,21.45
2016-12-14T06:17:41.363Z,21.5
2016-12-14T06:18:51.354Z,21.48
2016-12-14T06:20:01.636Z,21.44
2016-12-14T06:21:11.903Z,21.44
2016-12-14T06:22:22.180Z,21.45
2016-12-14T06:23:31.520Z,21.41
2016-12-14T06:24:41.792Z,21.47
2016-12-14T06:25:51.458Z,21.44
2016-12-14T06:27:01.725Z,21.45
2016-12-14T06:28:12.019Z,21.43
2016-12-14T06:29:22.308Z,21.51
2016-12-14T06:30:32.823Z,21.41
2016-12-14T06:31:42.499Z,21.5
2016-12-14T06:32:52.452Z,21.51
2016-12-14T06:34:02.720Z,21.48
2016-12-14T06:35:13.040Z,21.58
2016-12-14T06:36:23.306Z,21.5
2016-12-14T06:37:32.954Z,21.51
2016-12-14T06:38:43.216Z,21.38
2016-12-14T06:39:53.181Z,21.48
2016-12-14T06:41:03.591Z,21.53
2016-12-14T06:42:13.914Z,21.44
2016-12-14T06:43:23.875Z,21.44
2016-12-14T06:44:33.837Z,21.47
2016-12-14T06:45:44.106Z,21.45
2016-12-14T06:46:54.061Z,21.58
2016-12-14T06:48:04.029Z,21.47
2016-12-14T06:49:14.046Z,21.44
2016-12-14T06:50:24.029Z,21.43
2016-12-14T06:51:34.004Z,21.44
2016-12-14T06:52:44.272Z,21.43
2016-12-14T06:53:54.554Z,21.43
2016-12-14T06:55:04.836Z,21.58
2016-12-14T06:56:14.474Z,21.47
2016-12-14T06:57:24.452Z,21.43
2016-12-14T06:58:34.727Z,21.47
2016-12-14T06:59:44.999Z,21.51
2016-12-14T07:00:55.274Z,21.45
2016-12-14T07:02:05.229Z,21.41
2016-12-14T07:03:15.492Z,21.5
2016-12-14T07:04:25.463Z,21.48
2016-12-14T07:05:35.735Z,21.44
2016-12-14T07:06:46.019Z,21.47
2016-12-14T07:07:55.985Z,21.51
2016-12-14T07:09:05.947Z,21.47
2016-12-14T07:10:15.929Z,21.48
2016-12-14T07:11:25.887Z,21.4
2016-12-14T07:12:35.795Z,21.48
2016-12-14T07:13:45.749Z,21.43
2016-12-14T07:14:56.036Z,21.43
2016-12-14T07:16:06.023Z,21.58
2016-12-14T07:17:15.982Z,21.48
2016-12-14T07:18:26.244Z,21.47
2016-12-14T07:19:36.509Z,21.47
2016-12-14T07:20:46.465Z,21.45
2016-12-14T07:21:56.933Z,21.44
2016-12-14T07:23:07.227Z,21.45
2016-12-14T07:24:17.246Z,21.47
2016-12-14T07:25:27.210Z,21.47
2016-12-14T07:26:37.556Z,21.43
2016-12-14T07:27:47.626Z,21.51
2016-12-14T07:28:57.639Z,21.45
2016-12-14T07:30:07.939Z,21.48
2016-12-14T07:31:18.215Z,21.47
2016-12-14T07:32:28.500Z,21.43
2016-12-14T07:33:38.444Z,21.5
2016-12-14T07:34:48.696Z,21.48
2016-12-14T07:35:58.641Z,21.43
2016-12-14T07:37:08.255Z,21.5
2016-12-14T07:38:18.180Z,21.43
2016-12-14T07:39:27.549Z,21.51
2016-12-14T07:40:37.815Z,21.43
2016-12-14T07:41:48.072Z,21.48
2016-12-14T07:42:58.308Z,21.45
2016-12-14T07:44:07.949Z,21.48
2016-12-14T07:45:17.927Z,21.54
2016-12-14T07:46:27.613Z,21.53
2016-12-14T07:47:37.479Z,21.44
2016-12-14T07:48:47.448Z,21.47
2016-12-14T07:49:57.088Z,21.45
2016-12-14T07:51:06.716Z,21.47
2016-12-14T07:52:16.999Z,21.45
2016-12-14T07:53:27.309Z,21.45
2016-12-14T07:54:37.292Z,21.43
2016-12-14T07:55:47.568Z,21.48
2016-12-14T07:56:57.527Z,21.41
2016-12-14T07:58:07.470Z,21.44
2016-12-14T07:59:17.744Z,21.48
2016-12-14T08:00:28.001Z,21.5
2016-12-14T08:01:37.965Z,21.45
2016-12-14T08:02:47.901Z,21.54
2016-12-14T08:03:57.544Z,21.47
2016-12-14T08:05:07.205Z,21.47
2016-12-14T08:06:17.498Z,21.53
2016-12-14T08:07:27.842Z,21.48
2016-12-14T08:08:38.192Z,21.4
2016-12-14T08:09:48.464Z,21.47
2016-12-14T08:10:58.737Z,21.41
2016-12-14T08:12:08.682Z,21.5
2016-12-14T08:13:18.029Z,21.44
2016-12-14T08:14:27.833Z,21.48
2016-12-14T08:15:37.911Z,21.51
2016-12-14T08:16:47.637Z,21.47
2016-12-14T08:17:57.946Z,21.5
2016-12-14T08:19:08.020Z,21.45
2016-12-14T08:20:18.745Z,21.48
2016-12-14T08:21:28.704Z,21.45
2016-12-14T08:22:38.681Z,21.44
2016-12-14T08:23:48.626Z,21.48
2016-12-14T08:24:58.909Z,21.43
2016-12-14T08:26:09.251Z,21.45
2016-12-14T08:27:19.244Z,21.56
2016-12-14T08:28:29.556Z,21.45
2016-12-14T08:29:39.881Z,21.59
2016-12-14T08:30:49.617Z,21.5
2016-12-14T08:31:59.615Z,21.56
2016-12-14T08:33:10.147Z,21.54
2016-12-14T08:34:20.175Z,21.59
2016-12-14T08:35:30.358Z,21.58
2016-12-14T08:36:40.800Z,21.51
2016-12-14T08:37:50.527Z,21.5
2016-12-14T08:39:00.524Z,21.53
2016-12-14T08:40:10.517Z,21.56
2016-12-14T08:41:20.198Z,21.51
2016-12-14T08:42:30.301Z,21.56
2016-12-14T08:43:40.580Z,21.5
2016-12-14T08:44:50.918Z,21.56
2016-12-14T08:46:00.947Z,21.6
2016-12-14T08:47:10.616Z,21.62
2016-12-14T08:48:20.661Z,21.51
2016-12-14T08:49:30.733Z,21.54
2016-12-14T08:50:40.709Z,21.54
2016-12-14T08:51:50.831Z,21.58
2016-12-14T08:53:01.147Z,21.63
2016-12-14T08:54:11.112Z,21.59
2016-12-14T08:55:20.760Z,21.63
2016-12-14T08:56:30.760Z,21.59
2016-12-14T08:57:41.045Z,21.54
2016-12-14T08:58:51.085Z,21.54
2016-12-14T09:00:01.353Z,21.53
2016-12-14T09:01:10.710Z,21.6
2016-12-14T09:02:20.605Z,21.6
2016-12-14T09:03:30.947Z,21.54
2016-12-14T09:04:41.283Z,21.58
2016-12-14T09:05:51.234Z,21.62
2016-12-14T09:07:00.895Z,21.53
2016-12-14T09:08:10.853Z,21.65
2016-12-14T09:09:21.150Z,21.53
2016-12-14T09:10:31.502Z,21.54
2016-12-14T09:11:41.145Z,21.6
2016-12-14T09:12:51.119Z,21.58
2016-12-14T09:14:00.819Z,21.6
2016-12-14T09:15:11.168Z,21.59
2016-12-14T09:16:21.261Z,21.6
2016-12-14T09:17:31.557Z,21.51
2016-12-14T09:18:41.763Z,21.6
2016-12-14T09:19:51.771Z,21.6
2016-12-14T09:21:02.066Z,21.54
2016-12-14T09:22:11.797Z,21.63
2016-12-14T09:23:21.449Z,21.58
2016-12-14T09:24:31.465Z,21.54
2016-12-14T09:25:41.423Z,21.59
2016-12-14T09:26:51.494Z,21.56
2016-12-14T09:28:01.532Z,21.62
2016-12-14T09:29:11.525Z,21.6
2016-12-14T09:30:21.880Z,21.63
2016-12-14T09:31:31.552Z,21.65
2016-12-14T09:32:41.842Z,21.6
2016-12-14T09:33:52.182Z,21.6
2016-12-14T09:35:02.441Z,21.63
2016-12-14T09:36:12.098Z,21.65
2016-12-14T09:37:22.377Z,21.59
2016-12-14T09:38:32.383Z,21.63
2016-12-14T09:39:42.983Z,21.68
2016-12-14T09:40:53.272Z,21.63
2016-12-14T09:42:03.295Z,21.66
2016-12-14T09:43:13.608Z,21.59
2016-12-14T09:44:23.913Z,21.72
2016-12-14T09:45:34.209Z,21.65
2016-12-14T09:46:44.514Z,21.68
2016-12-14T09:47:54.823Z,21.65
2016-12-14T09:49:04.796Z,21.59
2016-12-14T09:50:14.812Z,21.65
2016-12-14T09:51:25.160Z,21.65
2016-12-14T09:52:34.837Z,21.63
2016-12-14T09:53:45.467Z,21.66
2016-12-14T09:54:55.774Z,21.62
2016-12-14T09:56:05.752Z,21.59
2016-12-14T09:57:15.739Z,21.72
2016-12-14T09:58:25.749Z,21.74
2016-12-14T09:59:35.727Z,21.68
2016-12-14T10:00:45.736Z,21.69
2016-12-14T10:01:55.733Z,21.69
2016-12-14T10:03:06.122Z,21.8
2016-12-14T10:04:16.450Z,21.74
2016-12-14T10:05:26.145Z,21.7
2016-12-14T10:06:36.152Z,21.7
2016-12-14T10:07:46.478Z,21.88
2016-12-14T10:08:56.814Z,21.75
2016-12-14T10:10:06.530Z,21.83
2016-12-14T10:11:16.216Z,21.72
2016-12-14T10:12:26.248Z,21.83
2016-12-14T10:13:36.555Z,21.75
2016-12-14T10:14:46.905Z,21.78
2016-12-14T10:15:56.859Z,21.91
2016-12-14T10:17:06.207Z,21.8
2016-12-14T10:18:16.175Z,21.88
2016-12-14T10:19:26.484Z,21.89
2016-12-14T10:20:36.392Z,21.91
2016-12-14T10:21:46.677Z,21.88
2016-12-14T10:22:56.328Z,21.91
2016-12-14T10:24:06.293Z,21.85
2016-12-14T10:25:15.960Z,21.88
2016-12-14T10:26:26.210Z,21.88
2016-12-14T10:27:36.183Z,21.97
2016-12-14T10:28:46.273Z,21.85
2016-12-14T10:29:55.935Z,21.94
2016-12-14T10:31:05.935Z,22
2016-12-14T10:32:15.896Z,21.92
2016-12-14T10:33:25.841Z,21.94
2016-12-14T10:34:36.091Z,21.94
2016-12-14T10:35:46.360Z,21.91
2016-12-14T10:36:56.325Z,21.88
2016-12-14T10:38:06.302Z,21.94
2016-12-14T10:39:16.578Z,22.01
2016-12-14T10:40:26.527Z,21.96
2016-12-14T10:41:36.805Z,21.97
2016-12-14T10:42:47.079Z,21.94
2016-12-14T10:43:57.346Z,22.03
2016-12-14T10:45:07.651Z,22.01
2016-12-14T10:46:17.618Z,21.97
2016-12-14T10:47:27.882Z,21.92
2016-12-14T10:48:38.143Z,21.94
2016-12-14T10:49:48.408Z,22
2016-12-14T10:50:58.063Z,21.99
2016-12-14T10:52:08.325Z,22.01
2016-12-14T10:53:18.007Z,22.01
2016-12-14T10:54:28.322Z,21.97
2016-12-14T10:55:38.306Z,22.01
2016-12-14T10:56:47.954Z,21.94
2016-12-14T10:57:57.921Z,21.88
2016-12-14T10:59:07.581Z,21.99
2016-12-14T11:00:17.580Z,22.01
2016-12-14T11:01:26.911Z,22.03
2016-12-14T11:02:36.581Z,22.01
2016-12-14T11:03:46.881Z,22
2016-12-14T11:04:56.527Z,22
2016-12-14T11:06:06.808Z,22.04
2016-12-14T11:07:16.769Z,21.97
2016-12-14T11:08:26.741Z,22
2016-12-14T11:09:36.718Z,22.04
2016-12-14T11:10:46.705Z,22.03
2016-12-14T11:11:56.984Z,22.03
2016-12-14T11:13:07.312Z,22.07
2016-12-14T11:14:17.596Z,22.06
2016-12-14T11:15:27.628Z,22.01
2016-12-14T11:16:38.002Z,22.04
2016-12-14T11:17:48.067Z,22.06
2016-12-14T11:18:58.422Z,22.04
2016-12-14T11:20:08.426Z,22
2016-12-14T11:21:18.700Z,22
2016-12-14T11:22:28.361Z,22.06
2016-12-14T11:23:38.702Z,22.06
2016-12-14T11:24:48.745Z,22.1
2016-12-14T11:25:58.719Z,22.04
2016-12-14T11:27:08.386Z,22.04
2016-12-14T11:28:18.445Z,22.06
2016-12-14T11:29:28.153Z,22.08
2016-12-14T11:30:38.160Z,22.1
2016-12-14T11:31:47.219Z,22
2016-12-14T11:32:56.858Z,21.99
2016-12-14T11:34:06.831Z,21.97
2016-12-14T11:35:17.162Z,22.12
2016-12-14T11:36:27.143Z,22.04
2016-12-14T11:37:37.107Z,22
2016-12-14T11:38:47.091Z,22.08
2016-12-14T11:39:57.412Z,22.04
2016-12-14T11:41:07.408Z,22.14
2016-12-14T11:42:17.059Z,22.06
2016-12-14T11:43:26.432Z,22.06
2016-12-14T11:44:36.727Z,22.06
2016-12-14T11:45:46.995Z,22.08
2016-12-14T11:46:56.644Z,22.14
2016-12-14T11:48:06.922Z,22.07
2016-12-14T11:49:17.197Z,22.07
2016-12-14T11:50:27.197Z,22.04
2016-12-14T11:51:37.514Z,22.18
2016-12-14T11:52:47.808Z,22.08
2016-12-14T11:53:58.101Z,22.1
2016-12-14T11:55:08.074Z,22.15
2016-12-14T11:56:18.397Z,22.19
2016-12-14T11:57:28.717Z,22.14
2016-12-14T11:58:39.108Z,22.07
2016-12-14T11:59:49.405Z,22.16
2016-12-14T12:00:59.681Z,22.12
2016-12-14T12:02:09.335Z,22.18
2016-12-14T12:03:19.601Z,22.15
2016-12-14T12:04:29.298Z,22.12
2016-12-14T12:05:39.267Z,22.15
2016-12-14T12:06:49.563Z,22.1
2016-12-14T12:07:59.538Z,22.21
2016-12-14T12:09:09.799Z,22.14
2016-12-14T12:10:19.578Z,22.12
2016-12-14T12:11:29.265Z,22.16
2016-12-14T12:12:39.643Z,22.21
2016-12-14T12:13:49.930Z,22.18
2016-12-14T12:14:59.914Z,22.15
2016-12-14T12:16:09.674Z,22.12
2016-12-14T12:17:19.675Z,22.14
2016-12-14T12:18:29.653Z,22.18
2016-12-14T12:19:39.345Z,22.12
2016-12-14T12:20:49.637Z,22.16
2016-12-14T12:21:59.422Z,22.18
2016-12-14T12:23:09.707Z,22.16
2016-12-14T12:24:19.688Z,22.23
2016-12-14T12:25:29.367Z,22.18
2016-12-14T12:26:39.649Z,22.18
2016-12-14T12:27:49.467Z,22.16
2016-12-14T12:28:59.761Z,22.16
2016-12-14T12:30:09.758Z,22.14
2016-12-14T12:31:20.040Z,22.22
2016-12-14T12:32:30.356Z,22.16
2016-12-14T12:33:40.744Z,22.14
2016-12-14T12:34:50.736Z,22.14
2016-12-14T12:36:01.313Z,22.18
2016-12-14T12:37:11.352Z,22.16
2016-12-14T12:38:21.682Z,22.1
2016-12-14T12:39:31.772Z,22.16
2016-12-14T12:40:41.739Z,22.01
2016-12-14T12:41:51.730Z,22.06
2016-12-14T12:43:02.020Z,22.07
2016-12-14T12:44:12.292Z,22
2016-12-14T12:45:22.356Z,22.04
2016-12-14T12:46:32.324Z,22.01
2016-12-14T12:47:42.593Z,22.01
2016-12-14T12:48:52.567Z,21.97
2016-12-14T12:50:02.530Z,22.07
2016-12-14T12:51:12.597Z,22.03
2016-12-14T12:52:22.576Z,22.03
2016-12-14T12:53:32.852Z,22.01
2016-12-14T12:54:43.156Z,22.08
2016-12-14T12:55:53.161Z,22.04
2016-12-14T12:57:03.595Z,22.03
2016-12-14T12:58:13.886Z,22.01
2016-12-14T12:59:24.177Z,22.04
2016-12-14T13:00:34.456Z,22.04
2016-12-14T13:01:44.430Z,21.97
2016-12-14T13:02:54.842Z,22
2016-12-14T13:04:05.121Z,22.04
2016-12-14T13:05:15.393Z,22.01
2016-12-14T13:06:25.376Z,22
2016-12-14T13:07:35.360Z,22.03
2016-12-14T13:08:45.748Z,21.99
2016-12-14T13:09:56.302Z,22.04
2016-12-14T13:11:06.907Z,21.99
2016-12-14T13:12:17.222Z,22
2016-12-14T13:13:27.576Z,21.99
2016-12-14T13:14:37.963Z,21.99
2016-12-14T13:15:48.272Z,22.01
2016-12-14T13:22:43.601Z,21.81
2016-12-14T13:23:53.583Z,21.92
2016-12-14T13:25:03.545Z,21.97
2016-12-14T13:26:13.833Z,21.99
2016-12-14T13:27:24.234Z,21.91
2016-12-14T13:28:34.208Z,21.94
2016-12-14T13:29:44.179Z,21.99
2016-12-14T13:30:53.894Z,21.8
2016-12-14T13:32:04.179Z,22
2016-12-14T13:33:14.552Z,21.83
2016-12-14T13:34:24.518Z,21.94
2016-12-14T13:35:34.800Z,21.85
2016-12-14T13:36:44.796Z,21.91
2016-12-14T13:37:55.114Z,21.92
2016-12-14T13:39:05.554Z,21.99
2016-12-14T13:40:14.931Z,21.89
2016-12-14T13:41:25.206Z,21.94
2016-12-14T13:42:35.176Z,21.99
2016-12-14T13:43:45.151Z,21.85
2016-12-14T13:44:55.180Z,21.94
2016-12-14T13:46:05.487Z,21.92
2016-12-14T13:47:15.839Z,21.85
2016-12-14T13:48:26.166Z,21.92
2016-12-14T13:49:36.476Z,21.89
2016-12-14T13:50:46.771Z,21.92
2016-12-14T13:51:56.762Z,21.91
2016-12-14T13:53:06.735Z,21.91
2016-12-14T13:54:17.027Z,21.83
2016-12-14T13:55:27.330Z,21.91
2016-12-14T13:56:37.605Z,21.88
2016-12-14T13:57:47.262Z,21.88
2016-12-14T13:58:57.240Z,21.94
2016-12-14T14:00:06.908Z,21.91
2016-12-14T14:01:16.905Z,21.81
2016-12-14T14:02:26.905Z,21.92
2016-12-14T14:03:37.212Z,21.91
2016-12-14T14:04:47.241Z,21.83
2016-12-14T14:05:57.546Z,21.84
2016-12-14T14:07:07.752Z,21.91
2016-12-14T14:08:17.741Z,21.88
2016-12-14T14:09:27.397Z,21.88
2016-12-14T14:10:37.371Z,21.84
2016-12-14T14:11:46.711Z,21.88
2016-12-14T14:12:56.686Z,21.85
2016-12-14T14:14:06.690Z,21.89
2016-12-14T14:15:16.680Z,21.89
2016-12-14T14:16:26.370Z,21.84
2016-12-14T14:17:36.040Z,21.84
2016-12-14T14:18:46.318Z,21.88
2016-12-14T14:19:56.604Z,21.81
2016-12-14T14:21:06.572Z,21.85
2016-12-14T14:22:16.852Z,21.83
2016-12-14T14:23:26.805Z,21.81
2016-12-14T14:24:37.090Z,21.83
2016-12-14T14:25:47.054Z,21.83
2016-12-14T14:26:57.057Z,21.83
2016-12-14T14:28:07.027Z,21.8
2016-12-14T14:29:17.020Z,21.8
2016-12-14T14:30:27.048Z,21.81
2016-12-14T14:31:36.395Z,21.88
2016-12-14T14:32:46.056Z,21.83
2016-12-14T14:33:56.328Z,21.8
2016-12-14T14:35:06.632Z,21.84
2016-12-14T14:36:16.353Z,21.85
2016-12-14T14:37:26.041Z,21.81
2016-12-14T14:38:36.004Z,21.75
2016-12-14T14:39:46.286Z,21.83
2016-12-14T14:40:56.565Z,21.78
2016-12-14T14:42:05.969Z,21.78
2016-12-14T14:43:16.330Z,21.74
2016-12-14T14:44:26.347Z,21.77
2016-12-14T14:45:36.628Z,21.88
2016-12-14T14:46:46.913Z,21.83
2016-12-14T14:47:56.581Z,21.7
2016-12-14T14:49:06.859Z,21.75
2016-12-14T14:50:17.144Z,21.72
2016-12-14T14:51:27.425Z,21.69
2016-12-14T14:52:37.383Z,21.72
2016-12-14T14:53:47.358Z,21.75
2016-12-14T14:54:57.630Z,21.72
2016-12-14T14:56:07.911Z,21.75
2016-12-14T14:57:18.193Z,21.72
2016-12-14T14:58:28.493Z,21.77
2016-12-14T14:59:38.468Z,21.74
2016-12-14T15:00:48.474Z,21.77
2016-12-14T15:01:57.819Z,21.77
2016-12-14T15:03:08.126Z,21.69
2016-12-14T15:04:18.416Z,21.68
2016-12-14T15:05:28.391Z,21.77
2016-12-14T15:06:38.654Z,21.72
2016-12-14T15:07:48.637Z,21.77
2016-12-14T15:08:58.595Z,21.69
2016-12-14T15:10:08.621Z,21.7
2016-12-14T15:11:18.909Z,21.72
2016-12-14T15:12:28.569Z,21.72